Fort White, Florida
Current Conditions -  °F | °C
As of 1:15 PM on Thursday 18 Dec 2014 (Local Time) from KLCQ Reporting Station
Clear Clear  
Wind Chill: 63°   Ceiling: Unl
Heat Index: 63°   Visibility: 10mi
Dew Point: 43°   Wind: 5mph
Humidity: 48%   Direction: 270°W
Pressure: 30.13"   Gusts: NA
Location:  29.92°N, 82.71°W
Report Text: KLCQ 181815Z AUTO 27004KT 10SM CLR 17/06 A3013 RMK AO2
Loading
Personal Weather Stations






























Interactive Weather Map New forecast layout! Learn more

10-Day Weather Forecast

Advertisements
Track Severe Weather on mobile